Time;durP1;ratioP1;P1;durP2;ratioP2;P2;SDS_P1;SDS_P2;PMS_P1;PMS_P2;Temp;Humidity;BMP_temperature;BMP_pressure;BME280_temperature;BME280_humidity;BME280_pressure;Samples;Min_cycle;Max_cycle;Signal;HPM_P1;HPM_P2
2022/08/14 00:01:46;;;;;;;10.32;5.87;;;27.20;99.90;;;;;;1893454;74;21136;-81
2022/08/14 00:04:18;;;;;;;9.75;6.65;;;27.20;99.90;;;;;;1855812;74;21175;-80
2022/08/14 00:06:50;;;;;;;11.80;6.45;;;27.20;99.90;;;;;;1881249;75;21227;-81
2022/08/14 00:09:22;;;;;;;11.63;6.80;;;27.20;99.90;;;;;;1853308;76;21198;-82
2022/08/14 00:11:55;;;;;;;9.00;5.87;;;27.20;99.90;;;;;;1840614;76;21155;-81
2022/08/14 00:14:28;;;;;;;14.75;7.20;;;27.30;99.90;;;;;;1868418;76;21586;-81
2022/08/14 00:16:59;;;;;;;16.82;7.08;;;27.30;99.90;;;;;;1861126;76;21074;-81
2022/08/14 00:19:30;;;;;;;16.48;7.28;;;27.30;99.90;;;;;;1847900;76;21612;-82
2022/08/14 00:22:01;;;;;;;11.97;6.87;;;27.40;99.90;;;;;;1856663;76;21104;-81
2022/08/14 00:24:34;;;;;;;11.93;6.50;;;27.30;99.90;;;;;;1857011;76;21128;-81
2022/08/14 00:27:05;;;;;;;9.78;6.60;;;27.40;99.90;;;;;;1839997;77;21129;-81
2022/08/14 00:29:36;;;;;;;10.85;5.97;;;27.40;99.90;;;;;;1837765;77;21188;-70
2022/08/14 00:32:09;;;;;;;11.48;6.10;;;27.40;99.90;;;;;;1830877;78;21148;-70
2022/08/14 00:34:41;;;;;;;15.05;6.40;;;27.40;99.90;;;;;;1830782;77;21111;-69
2022/08/14 00:37:14;;;;;;;10.68;5.53;;;27.40;99.90;;;;;;1861837;76;21146;-69
2022/08/14 00:39:45;;;;;;;12.33;5.85;;;27.40;99.90;;;;;;1861423;77;21151;-68
2022/08/14 00:42:20;;;;;;;11.30;5.95;;;27.40;99.90;;;;;;1849282;76;21132;-69
2022/08/14 00:44:53;;;;;;;17.52;5.97;;;27.40;99.90;;;;;;1847038;76;21622;-70
2022/08/14 00:47:25;;;;;;;12.23;6.33;;;27.50;99.90;;;;;;1840195;77;21246;-69
2022/08/14 00:49:56;;;;;;;11.48;5.90;;;27.50;99.90;;;;;;1832204;76;21141;-69
2022/08/14 00:52:28;;;;;;;9.33;5.65;;;27.60;99.90;;;;;;1821005;77;21210;-69
2022/08/14 00:55:01;;;;;;;11.48;5.72;;;27.60;99.90;;;;;;1842677;76;21127;-69
2022/08/14 00:57:35;;;;;;;14.13;6.53;;;27.60;99.90;;;;;;1842223;78;21682;-69
2022/08/14 01:00:13;;;;;;;10.23;5.62;;;27.70;99.90;;;;;;1851100;76;21229;-68
2022/08/14 01:02:44;;;;;;;15.63;5.80;;;27.70;99.90;;;;;;1846123;76;21183;-70
2022/08/14 01:05:23;;;;;;;11.10;5.58;;;27.70;99.90;;;;;;1850745;76;21133;-69
2022/08/14 01:07:54;;;;;;;10.90;5.25;;;27.80;99.90;;;;;;1853517;76;21145;-71
2022/08/14 01:10:49;;;;;;;13.30;5.47;;;27.80;99.90;;;;;;1845613;76;21144;-69
2022/08/14 01:13:01;;;;;;;10.25;5.12;;;27.80;99.90;;;;;;1831635;76;21156;-70
2022/08/14 01:15:32;;;;;;;10.08;4.67;;;27.90;99.90;;;;;;1846112;76;21908;-70
2022/08/14 01:23:12;;;;;;;7.92;4.58;;;28.10;99.90;;;;;;1844553;78;21157;-70
2022/08/14 01:25:46;;;;;;;13.10;6.03;;;28.20;99.90;;;;;;1854722;76;21149;-70
2022/08/14 01:28:21;;;;;;;9.20;4.78;;;28.30;99.90;;;;;;1811448;77;21211;-70
2022/08/14 01:30:56;;;;;;;11.22;5.22;;;28.40;99.90;;;;;;1865175;75;21617;-70
2022/08/14 01:33:28;;;;;;;11.33;5.70;;;28.40;99.90;;;;;;1848983;76;21713;-70
2022/08/14 01:36:01;;;;;;;11.10;4.95;;;28.50;99.90;;;;;;1815470;77;21150;-69
2022/08/14 01:38:34;;;;;;;10.23;5.20;;;28.50;99.90;;;;;;1848658;76;21177;-70
2022/08/14 01:41:08;;;;;;;12.90;5.67;;;28.60;99.90;;;;;;1817500;77;22122;-70
2022/08/14 01:43:43;;;;;;;12.63;6.08;;;28.60;99.90;;;;;;1850897;76;21204;-70
2022/08/14 01:46:18;;;;;;;9.60;5.47;;;28.70;99.90;;;;;;1846151;76;21205;-70
2022/08/14 01:48:52;;;;;;;12.55;5.67;;;28.70;99.90;;;;;;1863176;76;21091;-69
2022/08/14 01:51:27;;;;;;;10.63;5.20;;;28.70;99.90;;;;;;1922097;74;21209;-69
2022/08/14 01:54:00;;;;;;;10.55;5.25;;;28.70;99.90;;;;;;1880094;75;21214;-70
2022/08/14 01:56:36;;;;;;;9.45;5.35;;;28.80;99.90;;;;;;1868705;75;22335;-69
2022/08/14 01:59:10;;;;;;;11.00;5.37;;;28.90;99.70;;;;;;1882027;74;22129;-71
2022/08/14 02:01:43;;;;;;;11.03;5.78;;;29.00;99.40;;;;;;1871341;75;21206;-70
2022/08/14 02:04:16;;;;;;;9.73;5.05;;;29.10;99.20;;;;;;1868786;75;21274;-69
2022/08/14 02:06:50;;;;;;;14.23;4.70;;;29.20;99.20;;;;;;1818349;77;21144;-69
2022/08/14 02:09:22;;;;;;;14.78;4.90;;;29.30;98.50;;;;;;1854120;76;21200;-69
2022/08/14 02:11:55;;;;;;;12.25;4.58;;;29.40;98.20;;;;;;1861944;76;21164;-69
2022/08/14 02:14:26;;;;;;;10.08;4.67;;;29.50;97.30;;;;;;1814446;77;21225;-69
2022/08/14 02:16:59;;;;;;;11.60;4.90;;;29.60;97.40;;;;;;1826590;77;21120;-70
2022/08/14 02:19:34;;;;;;;11.50;5.45;;;29.70;97.00;;;;;;1822857;77;21779;-69
2022/08/14 02:22:05;;;;;;;11.75;5.10;;;29.80;97.30;;;;;;1824328;77;21132;-69
2022/08/14 02:24:37;;;;;;;10.10;5.00;;;29.80;97.10;;;;;;1824126;77;21147;-70
2022/08/14 02:27:10;;;;;;;10.75;4.75;;;29.90;96.90;;;;;;1851178;75;21245;-71
2022/08/14 02:29:42;;;;;;;13.22;5.30;;;29.90;96.30;;;;;;1824449;77;21167;-69
2022/08/14 02:32:16;;;;;;;13.03;5.17;;;30.00;96.60;;;;;;1855989;76;21221;-69
2022/08/14 02:34:48;;;;;;;9.83;4.53;;;30.00;96.50;;;;;;1816475;76;21089;-69
2022/08/14 02:37:20;;;;;;;8.30;4.22;;;30.10;96.60;;;;;;1815023;79;21665;-69
2022/08/14 02:39:53;;;;;;;10.95;4.78;;;30.10;96.00;;;;;;1856444;76;21234;-69
2022/08/14 02:42:24;;;;;;;10.25;5.30;;;30.20;96.00;;;;;;1859864;76;21655;-69
2022/08/14 02:44:56;;;;;;;12.43;5.65;;;30.30;96.10;;;;;;1837854;76;21229;-69
2022/08/14 02:47:28;;;;;;;10.13;5.40;;;30.20;96.40;;;;;;1867614;76;21206;-69
2022/08/14 02:49:59;;;;;;;9.88;5.15;;;30.30;96.40;;;;;;1850956;76;21132;-69
2022/08/14 02:52:33;;;;;;;11.18;5.45;;;30.40;96.30;;;;;;1861395;76;21176;-69
2022/08/14 02:55:05;;;;;;;11.33;5.72;;;30.50;96.20;;;;;;1843969;76;21194;-70
2022/08/14 02:57:36;;;;;;;8.83;4.65;;;30.60;96.00;;;;;;1850216;76;21887;-69
2022/08/14 03:00:11;;;;;;;9.88;4.30;;;30.70;95.70;;;;;;1854283;76;21635;-69
2022/08/14 03:02:43;;;;;;;8.53;4.08;;;30.80;95.00;;;;;;1757649;80;21258;-69
2022/08/14 03:05:16;;;;;;;10.38;4.40;;;30.80;94.40;;;;;;1796305;77;21291;-69
2022/08/14 03:07:48;;;;;;;8.38;4.37;;;30.90;94.50;;;;;;1812008;77;21153;-69
2022/08/14 03:10:20;;;;;;;9.05;5.00;;;31.00;95.00;;;;;;1800762;77;21747;-69
2022/08/14 03:12:53;;;;;;;8.55;4.55;;;31.10;94.80;;;;;;1810919;77;21204;-70
2022/08/14 03:15:24;;;;;;;9.30;4.80;;;31.10;94.50;;;;;;1816094;79;21660;-69
2022/08/14 03:17:55;;;;;;;10.55;4.62;;;31.30;94.60;;;;;;1788661;79;21646;-70
2022/08/14 03:20:29;;;;;;;8.70;4.42;;;31.30;94.20;;;;;;1793933;77;21215;-70
2022/08/14 03:23:00;;;;;;;8.00;4.33;;;31.40;94.70;;;;;;1795996;79;21109;-70
2022/08/14 03:25:34;;;;;;;7.60;4.00;;;31.60;94.00;;;;;;1789968;80;21108;-70
2022/08/14 03:28:08;;;;;;;11.08;4.22;;;31.70;93.90;;;;;;1803906;79;21174;-69
2022/08/14 03:30:42;;;;;;;7.42;4.65;;;31.80;94.00;;;;;;1800491;78;21157;-69
2022/08/14 03:33:14;;;;;;;8.18;4.15;;;32.00;93.10;;;;;;1816558;79;21161;-69
2022/08/14 03:35:45;;;;;;;10.20;4.30;;;32.00;93.30;;;;;;1816603;77;21174;-69
2022/08/14 03:38:18;;;;;;;7.60;4.05;;;32.00;92.70;;;;;;1837302;76;21229;-69
2022/08/14 03:40:50;;;;;;;10.72;4.87;;;32.00;92.80;;;;;;1855968;76;21143;-69
2022/08/14 03:43:22;;;;;;;8.43;3.80;;;32.10;92.80;;;;;;1874405;76;21095;-69
2022/08/14 03:45:54;;;;;;;8.05;4.08;;;32.20;92.10;;;;;;1809407;79;21122;-69
2022/08/14 03:48:26;;;;;;;8.00;3.92;;;32.20;92.00;;;;;;1873640;75;21588;-69
2022/08/14 03:51:01;;;;;;;12.68;4.35;;;32.20;92.50;;;;;;1868508;75;21760;-70
2022/08/14 03:53:33;;;;;;;8.90;4.37;;;32.30;92.30;;;;;;1876553;75;21239;-69
2022/08/14 03:56:06;;;;;;;9.88;4.28;;;32.30;92.60;;;;;;1818811;77;21683;-70
2022/08/14 03:58:41;;;;;;;10.58;4.60;;;32.20;92.20;;;;;;1805509;79;21095;-70
2022/08/14 04:01:14;;;;;;;8.50;3.85;;;32.00;92.50;;;;;;1789089;79;21965;-69
2022/08/14 04:03:47;;;;;;;7.87;4.08;;;32.00;93.00;;;;;;1877427;75;21626;-70
2022/08/14 04:06:20;;;;;;;13.25;4.15;;;32.00;93.40;;;;;;1860758;76;21130;-70
2022/08/14 04:08:53;;;;;;;8.18;3.83;;;32.10;93.10;;;;;;1858527;76;21208;-70
2022/08/14 04:11:25;;;;;;;9.40;4.62;;;32.20;92.70;;;;;;1853938;76;21168;-71
2022/08/14 04:13:56;;;;;;;10.50;3.85;;;32.40;92.80;;;;;;1854770;76;21082;-70
2022/08/14 04:16:29;;;;;;;16.90;4.97;;;32.40;92.30;;;;;;1784243;78;21115;-70
2022/08/14 04:19:03;;;;;;;15.60;4.67;;;32.50;92.60;;;;;;1826771;77;21554;-70
2022/08/14 04:21:33;;;;;;;11.15;5.05;;;32.40;92.50;;;;;;1831789;77;21721;-71
2022/08/14 04:24:05;;;;;;;8.15;4.20;;;32.50;92.80;;;;;;1813324;77;21099;-70
2022/08/14 04:26:38;;;;;;;10.35;3.90;;;32.40;92.60;;;;;;1827094;77;21172;-70
2022/08/14 04:29:12;;;;;;;10.20;4.47;;;32.50;92.70;;;;;;1811801;77;21146;-71
2022/08/14 04:31:47;;;;;;;9.88;4.37;;;32.50;92.50;;;;;;1844995;77;21126;-70
2022/08/14 04:34:19;;;;;;;7.58;3.92;;;32.60;91.40;;;;;;1840116;77;21148;-69
2022/08/14 04:44:30;;;;;;;9.28;4.25;;;33.00;90.80;;;;;;1814306;79;21162;-70
2022/08/14 04:49:35;;;;;;;50.80;7.33;;;33.10;90.60;;;;;;1786539;80;21260;-70
2022/08/14 04:52:08;;;;;;;12.07;3.83;;;33.10;90.60;;;;;;1815388;77;21126;-70
2022/08/14 04:54:40;;;;;;;9.43;3.52;;;33.10;90.50;;;;;;1810994;77;21127;-71
2022/08/14 04:57:12;;;;;;;13.05;4.15;;;33.10;90.40;;;;;;1800997;78;21195;-70
2022/08/14 04:59:42;;;;;;;10.48;3.65;;;33.00;90.40;;;;;;1777817;78;21206;-70
2022/08/14 05:02:15;;;;;;;9.65;3.50;;;32.90;90.70;;;;;;1852985;76;21128;-69
2022/08/14 05:04:47;;;;;;;8.75;3.52;;;32.90;91.10;;;;;;1856801;76;21241;-69
2022/08/14 05:07:19;;;;;;;9.58;4.05;;;32.70;91.00;;;;;;1852105;76;21606;-69
2022/08/14 05:09:52;;;;;;;9.18;3.92;;;32.60;90.80;;;;;;1853566;76;21159;-70
2022/08/14 05:12:25;;;;;;;8.05;4.00;;;32.50;91.10;;;;;;1832681;77;21895;-70
2022/08/14 05:14:57;;;;;;;8.78;3.58;;;32.50;91.00;;;;;;1847808;77;21134;-69
2022/08/14 05:17:29;;;;;;;5.83;3.50;;;32.50;90.40;;;;;;1847689;76;21207;-69
2022/08/14 05:20:02;;;;;;;8.53;3.98;;;32.60;90.90;;;;;;1852445;76;21149;-69
2022/08/14 05:22:34;;;;;;;10.23;3.70;;;32.70;90.40;;;;;;1848738;76;21205;-71
2022/08/14 05:25:12;;;;;;;6.20;3.22;;;32.80;88.90;;;;;;1867900;76;21097;-71
2022/08/14 05:27:43;;;;;;;8.80;3.35;;;32.90;90.40;;;;;;1870298;76;21208;-71
2022/08/14 05:30:14;;;;;;;9.43;3.35;;;33.10;89.60;;;;;;1858966;76;21179;-71
2022/08/14 05:32:46;;;;;;;7.97;3.52;;;33.20;89.50;;;;;;1871597;76;21132;-68
2022/08/14 05:35:18;;;;;;;6.97;3.70;;;33.10;88.70;;;;;;1854663;76;21645;-71
2022/08/14 05:37:50;;;;;;;8.68;3.55;;;33.10;89.10;;;;;;1850941;76;21263;-71
2022/08/14 05:40:21;;;;;;;11.15;3.75;;;33.00;89.70;;;;;;1864718;76;21132;-68
2022/08/14 05:42:56;;;;;;;6.42;3.00;;;33.00;89.70;;;;;;1807534;79;21651;-68
2022/08/14 05:45:26;;;;;;;7.53;3.52;;;32.90;88.80;;;;;;1816233;77;21123;-71
2022/08/14 05:47:59;;;;;;;10.60;3.67;;;32.80;88.10;;;;;;1844002;77;21135;-71
2022/08/14 05:50:30;;;;;;;6.83;3.30;;;32.70;88.30;;;;;;1831760;77;21531;-69
2022/08/14 05:53:01;;;;;;;8.80;4.12;;;32.60;89.00;;;;;;1816739;79;21598;-70
2022/08/14 05:55:33;;;;;;;4.55;2.70;;;32.50;88.00;;;;;;1783594;78;21125;-70
2022/08/14 05:58:07;;;;;;;7.17;3.30;;;32.40;86.20;;;;;;1846881;75;21091;-70
2022/08/14 06:00:41;;;;;;;6.10;3.02;;;32.40;87.50;;;;;;1824508;77;21634;-70
2022/08/14 06:03:15;;;;;;;5.80;3.35;;;32.30;88.90;;;;;;1822351;77;21437;-71
2022/08/14 06:05:48;;;;;;;6.15;3.20;;;32.30;89.60;;;;;;1840127;77;21612;-70
2022/08/14 06:08:22;;;;;;;6.65;3.27;;;32.20;89.10;;;;;;1815103;79;21171;-72
2022/08/14 06:11:04;;;;;;;11.80;4.37;;;32.10;89.80;;;;;;1807596;77;21269;-69
2022/08/14 06:13:35;;;;;;;9.83;4.83;;;32.00;91.10;;;;;;1791472;76;21218;-69
2022/08/14 06:16:07;;;;;;;9.18;4.85;;;32.00;92.00;;;;;;1804097;79;21192;-71
2022/08/14 06:18:38;;;;;;;7.87;4.53;;;32.00;92.40;;;;;;1807216;79;21168;-69
2022/08/14 06:21:14;;;;;;;11.12;5.17;;;31.90;92.70;;;;;;1806219;79;21178;-69
2022/08/14 06:23:46;;;;;;;10.98;4.87;;;31.80;92.80;;;;;;1806186;79;21182;-71
2022/08/14 06:26:18;;;;;;;9.95;5.28;;;31.80;92.90;;;;;;1799522;79;21135;-70
2022/08/14 06:28:51;;;;;;;9.73;4.47;;;31.80;92.80;;;;;;1783607;79;21168;-70
2022/08/14 06:31:24;;;;;;;11.65;5.15;;;31.70;92.70;;;;;;1798738;79;21183;-70
2022/08/14 06:33:55;;;;;;;12.00;5.08;;;31.70;92.90;;;;;;1782848;80;21621;-70
2022/08/14 06:36:28;;;;;;;11.55;4.97;;;31.70;92.90;;;;;;1794329;79;21701;-69
2022/08/14 06:38:59;;;;;;;11.75;4.87;;;31.60;93.40;;;;;;1820443;79;21624;-70
2022/08/14 06:41:31;;;;;;;8.68;4.28;;;31.50;93.80;;;;;;1808861;78;21161;-70
2022/08/14 06:44:03;;;;;;;9.73;4.75;;;31.40;94.00;;;;;;1797506;78;21287;-69
2022/08/14 06:46:37;;;;;;;10.23;5.15;;;31.20;94.50;;;;;;1805223;78;21145;-70
2022/08/14 06:49:08;;;;;;;9.23;4.80;;;31.20;94.30;;;;;;1794331;79;21214;-69
2022/08/14 06:51:45;;;;;;;13.85;5.00;;;31.10;94.50;;;;;;1797137;79;21187;-70
2022/08/14 06:54:13;;;;;;;10.20;5.08;;;31.10;94.60;;;;;;1832155;77;22031;-71
2022/08/14 06:56:45;;;;;;;18.25;4.58;;;31.00;94.60;;;;;;1830720;77;21176;-70
2022/08/14 06:59:18;;;;;;;9.98;4.40;;;30.90;94.50;;;;;;1813369;77;21514;-70
2022/08/14 07:06:58;;;;;;;10.53;4.67;;;30.90;94.30;;;;;;1824799;76;21248;-70
2022/08/14 07:09:29;;;;;;;9.80;5.08;;;30.90;94.30;;;;;;1816177;79;21096;-70
2022/08/14 07:12:01;;;;;;;13.30;6.72;;;30.90;94.30;;;;;;1828637;75;21729;-70
2022/08/14 07:14:32;;;;;;;13.95;6.47;;;31.00;94.40;;;;;;1836201;78;21573;-70
2022/08/14 07:17:03;;;;;;;9.48;4.40;;;31.00;94.40;;;;;;1863883;76;21084;-70
2022/08/14 07:19:35;;;;;;;10.10;6.87;;;31.00;94.40;;;;;;1864717;76;21175;-69
2022/08/14 07:22:08;;;;;;;9.35;5.22;;;31.10;94.40;;;;;;1857141;75;21135;-69
2022/08/14 07:24:40;;;;;;;8.95;6.22;;;31.10;94.40;;;;;;1854399;76;21096;-70
2022/08/14 07:27:11;;;;;;;9.98;6.53;;;31.20;94.20;;;;;;1858591;76;21140;-70
2022/08/14 07:29:43;;;;;;;8.95;4.85;;;31.30;93.70;;;;;;1849758;76;21201;-71
2022/08/14 07:32:13;;;;;;;8.00;4.17;;;31.40;93.50;;;;;;1862184;76;21121;-71
2022/08/14 07:34:46;;;;;;;8.90;4.20;;;31.50;93.20;;;;;;1843732;76;21240;-71
2022/08/14 07:37:17;;;;;;;7.70;3.95;;;31.60;92.70;;;;;;1857094;76;21170;-71
2022/08/14 07:39:48;;;;;;;6.10;3.72;;;31.70;92.40;;;;;;1857554;76;21591;-70
2022/08/14 07:42:21;;;;;;;7.10;4.20;;;31.80;92.50;;;;;;1858044;76;21990;-70
2022/08/14 07:44:52;;;;;;;13.35;4.55;;;31.80;92.50;;;;;;1858759;76;21559;-70
2022/08/14 07:47:24;;;;;;;8.43;4.15;;;31.80;92.00;;;;;;1854215;76;21095;-71
2022/08/14 07:49:58;;;;;;;8.58;4.62;;;31.90;92.10;;;;;;1853842;76;21559;-70
2022/08/14 07:52:30;;;;;;;10.00;4.05;;;31.90;91.90;;;;;;1856206;76;21201;-70
2022/08/14 07:55:02;;;;;;;8.58;4.15;;;31.90;92.00;;;;;;1852927;76;21105;-70
2022/08/14 07:57:33;;;;;;;7.03;3.90;;;32.00;92.20;;;;;;1844110;76;21147;-70
2022/08/14 08:00:09;;;;;;;8.75;4.42;;;32.00;92.20;;;;;;1855007;76;21430;-70
2022/08/14 08:02:44;;;;;;;8.68;4.40;;;32.00;92.40;;;;;;1857470;76;21252;-69
2022/08/14 08:05:17;;;;;;;11.43;4.80;;;32.00;92.50;;;;;;1857548;76;21845;-70
2022/08/14 08:07:49;;;;;;;9.50;3.98;;;31.90;92.70;;;;;;1859004;76;21147;-69
2022/08/14 08:10:32;;;;;;;10.78;4.25;;;32.00;92.20;;;;;;1863281;76;21123;-71
2022/08/14 08:12:58;;;;;;;6.90;3.77;;;31.90;92.10;;;;;;1833698;76;21221;-70
2022/08/14 08:15:32;;;;;;;8.83;4.17;;;31.90;92.40;;;;;;1826642;78;21174;-70
2022/08/14 08:18:06;;;;;;;9.10;4.53;;;31.90;92.20;;;;;;1834900;78;21139;-70
2022/08/14 08:20:41;;;;;;;10.35;4.47;;;31.80;92.40;;;;;;1832559;77;21142;-70
2022/08/14 08:23:14;;;;;;;8.90;4.72;;;31.80;92.40;;;;;;1826927;78;21238;-71
2022/08/14 08:25:49;;;;;;;12.03;4.72;;;31.80;92.30;;;;;;1795466;79;21260;-71
2022/08/14 08:28:25;;;;;;;7.20;4.30;;;31.80;92.30;;;;;;1781917;79;21668;-68
2022/08/14 08:30:59;;;;;;;9.97;4.73;;;31.80;92.50;;;;;;1807163;79;21131;-70
2022/08/14 08:33:34;;;;;;;9.50;4.35;;;31.80;92.70;;;;;;1797145;79;21734;-69
2022/08/14 08:36:10;;;;;;;8.48;4.90;;;31.80;92.70;;;;;;1827398;78;21169;-69
2022/08/14 08:38:44;;;;;;;8.13;5.03;;;31.70;92.80;;;;;;1781299;79;21197;-70
2022/08/14 08:41:17;;;;;;;12.03;4.85;;;31.70;92.80;;;;;;1773677;79;21198;-70
2022/08/14 08:43:48;;;;;;;8.15;4.62;;;31.70;92.90;;;;;;1793495;80;21193;-70
2022/08/14 08:46:21;;;;;;;6.83;4.22;;;31.60;93.00;;;;;;1781465;80;21302;-70
2022/08/14 08:48:56;;;;;;;10.23;4.58;;;31.70;93.10;;;;;;1808943;77;21710;-71
2022/08/14 08:51:27;;;;;;;8.68;4.50;;;31.70;93.50;;;;;;1802319;79;21178;-70
2022/08/14 08:54:02;;;;;;;12.88;5.17;;;31.70;93.80;;;;;;1780122;80;21163;-70
2022/08/14 08:56:35;;;;;;;8.68;4.83;;;31.70;94.10;;;;;;1779109;80;21167;-70
2022/08/14 08:59:12;;;;;;;8.88;5.17;;;31.70;94.10;;;;;;1791442;79;21113;-71
2022/08/14 09:01:46;;;;;;;9.90;5.03;;;31.60;93.90;;;;;;1823456;77;21702;-70
2022/08/14 09:04:30;;;;;;;8.08;4.22;;;31.60;93.60;;;;;;1802225;79;21137;-70
2022/08/14 09:07:01;;;;;;;13.00;4.85;;;31.60;93.70;;;;;;1757855;79;21615;-70
2022/08/14 09:09:49;;;;;;;8.93;4.40;;;31.70;94.00;;;;;;1810811;78;21163;-69
2022/08/14 09:12:09;;;;;;;8.45;4.30;;;31.60;94.00;;;;;;1769951;79;21086;-70
2022/08/14 09:14:41;;;;;;;6.17;4.05;;;31.60;93.90;;;;;;1854731;76;21180;-70
2022/08/14 09:17:13;;;;;;;7.65;4.15;;;31.60;93.80;;;;;;1831113;77;21211;-70
2022/08/14 09:19:44;;;;;;;10.32;4.28;;;31.60;93.60;;;;;;1830832;78;21722;-70
2022/08/14 09:22:17;;;;;;;10.63;4.33;;;31.60;93.60;;;;;;1826191;77;21140;-70
2022/08/14 09:24:49;;;;;;;10.32;4.72;;;31.60;93.60;;;;;;1856187;76;21237;-70
2022/08/14 09:27:25;;;;;;;9.23;4.95;;;31.60;93.60;;;;;;1820323;78;21149;-70
2022/08/14 09:29:53;;;;;;;9.43;4.33;;;31.60;93.60;;;;;;1842789;76;21852;-70
2022/08/14 09:32:27;;;;;;;8.15;4.87;;;31.60;93.60;;;;;;1862702;76;21218;-70
2022/08/14 09:35:02;;;;;;;10.95;4.75;;;31.60;93.60;;;;;;1818010;78;21714;-70
2022/08/14 09:37:43;;;;;;;12.23;5.00;;;31.60;93.50;;;;;;1850672;75;21141;-70
2022/08/14 09:40:16;;;;;;;11.20;4.62;;;31.60;93.30;;;;;;1846739;76;21208;-70
2022/08/14 09:42:52;;;;;;;13.03;4.47;;;31.50;93.10;;;;;;1850030;76;21124;-70
2022/08/14 09:45:26;;;;;;;7.37;4.05;;;31.50;93.10;;;;;;1839515;77;21586;-70
2022/08/14 09:47:59;;;;;;;9.05;4.30;;;31.50;92.80;;;;;;1812369;78;21100;-71
2022/08/14 09:50:32;;;;;;;8.80;4.53;;;31.50;92.90;;;;;;1843632;76;21230;-70
2022/08/14 09:53:05;;;;;;;7.00;4.40;;;31.50;92.90;;;;;;1851625;76;21399;-70
2022/08/14 09:55:40;;;;;;;9.73;5.20;;;31.50;93.00;;;;;;1814194;77;21120;-70
2022/08/14 09:58:14;;;;;;;8.23;5.35;;;31.50;93.20;;;;;;1836967;77;21147;-70
2022/08/14 10:00:48;;;;;;;10.13;5.62;;;31.50;93.40;;;;;;1808554;78;21689;-70
2022/08/14 10:03:23;;;;;;;11.88;4.75;;;31.50;93.50;;;;;;1814077;77;21280;-70
2022/08/14 10:05:59;;;;;;;9.23;5.20;;;31.50;93.40;;;;;;1810821;77;21128;-70
2022/08/14 10:08:33;;;;;;;7.50;4.47;;;31.50;93.30;;;;;;1829371;77;21122;-70
2022/08/14 10:11:09;;;;;;;8.73;5.08;;;31.40;93.40;;;;;;1811729;77;21139;-70
2022/08/14 10:13:40;;;;;;;11.97;5.75;;;31.40;93.50;;;;;;1844280;76;21214;-71
2022/08/14 10:16:14;;;;;;;9.13;5.47;;;31.40;93.60;;;;;;1817446;78;21253;-70
2022/08/14 10:18:50;;;;;;;11.88;5.45;;;31.40;93.60;;;;;;1855014;76;21669;-70
2022/08/14 10:21:21;;;;;;;8.20;5.33;;;31.40;93.50;;;;;;1823267;78;21630;-71
2022/08/14 10:23:52;;;;;;;10.85;5.37;;;31.40;93.30;;;;;;1814993;78;21226;-70
2022/08/14 10:26:24;;;;;;;9.90;5.50;;;31.40;93.20;;;;;;1854413;76;21136;-70
2022/08/14 10:28:58;;;;;;;9.50;5.42;;;31.40;93.30;;;;;;1860672;76;21611;-71
2022/08/14 10:31:33;;;;;;;8.70;4.67;;;31.30;92.90;;;;;;1824948;77;21177;-71
2022/08/14 10:34:08;;;;;;;10.25;5.28;;;31.30;93.30;;;;;;1852761;76;21670;-70
2022/08/14 10:36:43;;;;;;;10.30;6.05;;;31.40;93.20;;;;;;1866642;75;21240;-71
2022/08/14 10:39:18;;;;;;;11.43;5.78;;;31.40;93.40;;;;;;1817060;77;21179;-71
2022/08/14 10:41:51;;;;;;;13.48;6.78;;;31.30;93.40;;;;;;1815454;78;21118;-71
2022/08/14 10:44:26;;;;;;;11.93;6.72;;;31.40;93.60;;;;;;1823915;77;21093;-71
2022/08/14 10:47:06;;;;;;;13.77;6.97;;;31.30;93.80;;;;;;1876158;76;21126;-71
2022/08/14 10:49:33;;;;;;;14.38;7.85;;;31.30;93.80;;;;;;1829288;77;22042;-71
2022/08/14 10:52:06;;;;;;;14.65;8.00;;;31.30;93.70;;;;;;1829838;78;21160;-71
2022/08/14 10:54:40;;;;;;;13.43;8.53;;;31.20;93.90;;;;;;1800752;77;21663;-71
2022/08/14 10:57:15;;;;;;;10.98;6.15;;;31.20;93.90;;;;;;1836082;76;21129;-71
2022/08/14 10:59:48;;;;;;;10.98;6.37;;;31.20;93.80;;;;;;1847052;76;21222;-71
2022/08/14 11:02:22;;;;;;;11.48;6.40;;;31.20;93.90;;;;;;1852661;76;21083;-70
2022/08/14 11:04:56;;;;;;;13.35;7.42;;;31.10;93.90;;;;;;1858937;76;21602;-71
2022/08/14 11:07:30;;;;;;;14.68;7.75;;;31.10;94.40;;;;;;1847746;76;21277;-71
2022/08/14 11:10:05;;;;;;;13.18;7.35;;;31.10;95.10;;;;;;1831964;77;21250;-70
2022/08/14 11:12:45;;;;;;;13.90;8.48;;;31.10;95.30;;;;;;1815595;78;21203;-71
2022/08/14 11:15:17;;;;;;;15.10;8.18;;;31.00;95.60;;;;;;1845183;76;21198;-71
2022/08/14 11:17:49;;;;;;;12.10;7.60;;;31.00;95.70;;;;;;1832731;77;21619;-71
2022/08/14 11:20:22;;;;;;;12.30;7.50;;;30.90;95.80;;;;;;1811592;79;21137;-71
2022/08/14 11:23:06;;;;;;;11.90;7.33;;;30.90;96.00;;;;;;1836177;77;21150;-70
2022/08/14 11:25:38;;;;;;;11.80;7.58;;;30.90;96.00;;;;;;1827925;77;21166;-70
2022/08/14 11:28:12;;;;;;;14.63;7.35;;;30.80;96.10;;;;;;1832418;78;21187;-71
2022/08/14 11:30:46;;;;;;;10.32;7.58;;;30.80;96.20;;;;;;1840967;77;21087;-72
2022/08/14 11:33:22;;;;;;;;;;;30.80;96.20;;;;;;1840084;77;21212;-70
2022/08/14 11:35:53;;;;;;;21.35;7.28;;;30.80;96.20;;;;;;1840033;77;20180;-70
2022/08/14 11:38:27;;;;;;;14.03;8.98;;;30.70;96.50;;;;;;1820975;77;21099;-70
2022/08/14 11:40:58;;;;;;;16.52;7.90;;;30.70;96.50;;;;;;1824615;77;21141;-70
2022/08/14 11:43:29;;;;;;;13.58;8.58;;;30.70;96.60;;;;;;1861153;76;21164;-71
2022/08/14 11:46:01;;;;;;;17.87;8.75;;;30.70;96.70;;;;;;1863056;76;21155;-70
2022/08/14 11:48:35;;;;;;;17.80;9.08;;;30.70;96.80;;;;;;1854798;77;21163;-69
2022/08/14 11:51:10;;;;;;;12.75;8.50;;;30.60;96.90;;;;;;1847852;77;21173;-70
2022/08/14 11:53:42;;;;;;;12.30;7.75;;;30.60;97.00;;;;;;1815927;79;21188;-70
2022/08/14 11:56:14;;;;;;;14.35;9.23;;;30.60;97.00;;;;;;1815125;79;21242;-70
2022/08/14 11:58:48;;;;;;;13.83;8.33;;;30.60;97.00;;;;;;1815253;78;21119;-70
2022/08/14 12:01:27;;;;;;;14.65;8.88;;;30.60;97.20;;;;;;1820805;78;21165;-70
2022/08/14 12:03:57;;;;;;;13.70;8.60;;;30.50;97.30;;;;;;1822355;77;21646;-70
2022/08/14 12:06:32;;;;;;;15.90;9.05;;;30.50;97.40;;;;;;1828909;78;21701;-70
2022/08/14 12:09:05;;;;;;;13.28;8.93;;;30.50;97.60;;;;;;1820420;77;21188;-70
2022/08/14 12:11:39;;;;;;;15.35;9.70;;;30.40;97.60;;;;;;1826882;77;21226;-70
2022/08/14 12:14:13;;;;;;;17.12;9.60;;;30.40;97.70;;;;;;1815738;77;21231;-70
2022/08/14 12:16:47;;;;;;;16.00;10.88;;;30.40;97.80;;;;;;1823450;77;21170;-71
2022/08/14 12:19:18;;;;;;;15.65;11.20;;;30.40;98.00;;;;;;1834976;77;21745;-70
2022/08/14 12:21:52;;;;;;;14.30;10.60;;;30.40;98.00;;;;;;1815332;77;21101;-70
2022/08/14 12:24:26;;;;;;;16.00;10.60;;;30.40;98.10;;;;;;1817564;77;21156;-71
2022/08/14 12:26:58;;;;;;;14.33;10.48;;;30.30;98.00;;;;;;1803054;77;21156;-70
2022/08/14 12:29:29;;;;;;;12.75;8.95;;;30.30;98.10;;;;;;1830276;78;21557;-70
2022/08/14 12:32:06;;;;;;;20.27;10.60;;;30.30;97.90;;;;;;1819019;77;21183;-71
2022/08/14 12:34:40;;;;;;;18.67;10.88;;;30.30;97.90;;;;;;1811195;79;21189;-70
2022/08/14 12:37:12;;;;;;;15.08;9.83;;;30.30;97.80;;;;;;1812334;79;21260;-70
2022/08/14 12:39:46;;;;;;;16.70;10.50;;;30.30;97.90;;;;;;1815700;78;21742;-70
2022/08/14 12:42:17;;;;;;;14.93;10.38;;;30.30;97.90;;;;;;1801174;77;21226;-70
2022/08/14 12:44:50;;;;;;;15.32;11.00;;;30.30;97.90;;;;;;1817772;78;21178;-70
2022/08/14 12:47:25;;;;;;;19.82;11.60;;;30.20;97.90;;;;;;1815487;79;21211;-70
2022/08/14 12:49:56;;;;;;;14.90;11.08;;;30.20;98.00;;;;;;1816430;77;21136;-71
2022/08/14 12:52:30;;;;;;;14.03;11.22;;;30.20;98.10;;;;;;1823207;78;21782;-70
2022/08/14 12:55:06;;;;;;;16.75;11.38;;;30.20;98.10;;;;;;1823389;77;21101;-70
2022/08/14 12:57:41;;;;;;;19.45;11.00;;;30.10;98.40;;;;;;1825853;78;21253;-70
2022/08/14 13:00:17;;;;;;;19.62;10.88;;;30.00;98.40;;;;;;1810579;79;21089;-70
2022/08/14 13:02:52;;;;;;;17.90;10.95;;;30.00;98.50;;;;;;1820951;77;21800;-70
2022/08/14 13:05:28;;;;;;;15.60;10.43;;;30.00;98.40;;;;;;1786489;80;21134;-83
2022/08/14 13:08:02;;;;;;;16.85;9.83;;;30.10;98.40;;;;;;1756230;80;21673;-83
2022/08/14 13:10:35;;;;;;;18.37;12.00;;;30.00;98.10;;;;;;1804276;77;21141;-83
2022/08/14 13:13:09;;;;;;;16.20;10.50;;;30.00;98.40;;;;;;1765492;80;21174;-83
2022/08/14 13:15:44;;;;;;;21.68;11.18;;;30.10;98.60;;;;;;1755313;79;21693;-82
2022/08/14 13:18:16;;;;;;;15.05;11.05;;;30.00;98.60;;;;;;1827417;77;21697;-82
2022/08/14 13:20:54;;;;;;;15.83;11.48;;;30.00;98.70;;;;;;1783947;80;21150;-83
2022/08/14 13:23:29;;;;;;;16.25;11.30;;;30.00;98.70;;;;;;1837020;77;21146;-83
2022/08/14 13:26:02;;;;;;;13.55;10.60;;;30.00;98.80;;;;;;1835958;77;21238;-81
2022/08/14 13:28:35;;;;;;;16.25;11.43;;;30.00;98.70;;;;;;1823213;77;21154;-83
2022/08/14 13:31:10;;;;;;;17.25;10.95;;;30.00;98.70;;;;;;1817406;77;21191;-83